createdAt,value
2023-03-07T00:01:38.477Z,16.4
2023-03-07T00:03:40.442Z,10.6
2023-03-07T00:05:42.352Z,11.8
2023-03-07T00:07:45.851Z,12.1
2023-03-07T00:09:50.946Z,12.5
2023-03-07T00:11:52.879Z,11.8
2023-03-07T00:13:54.794Z,12.4
2023-03-07T00:15:56.787Z,12.8
2023-03-07T00:17:58.656Z,10.1
2023-03-07T00:20:00.602Z,12.1
2023-03-07T00:22:02.524Z,15.2
2023-03-07T00:24:07.658Z,20.6
2023-03-07T00:26:09.607Z,21.6
2023-03-07T00:28:11.513Z,5.9
2023-03-07T00:30:13.455Z,7.8
2023-03-07T00:32:15.418Z,9.4
2023-03-07T00:34:17.288Z,10.3
2023-03-07T00:36:19.188Z,7.1
2023-03-07T00:38:24.361Z,11.8
2023-03-07T00:40:26.296Z,13.9
2023-03-07T00:42:28.205Z,7.2
2023-03-07T00:43:30.784Z,11.5
2023-03-07T00:45:32.718Z,8.6
2023-03-07T00:47:34.644Z,11.8
2023-03-07T00:49:36.531Z,12.4
2023-03-07T00:51:41.685Z,13.6
2023-03-07T00:55:45.526Z,15.2
2023-03-07T00:59:49.382Z,14.6
2023-03-07T01:05:58.382Z,30.7
2023-03-07T01:12:04.166Z,28.7
2023-03-07T01:14:06.070Z,18.6
2023-03-07T01:16:08.053Z,25.6
2023-03-07T01:18:09.928Z,19.3
2023-03-07T01:20:15.096Z,26.2
2023-03-07T01:22:17.023Z,27.4
2023-03-07T01:24:18.956Z,19.9
2023-03-07T01:26:20.859Z,19.9
2023-03-07T01:28:22.762Z,20.5
2023-03-07T01:30:24.701Z,21.1
2023-03-07T01:32:26.647Z,16.5
2023-03-07T01:34:31.760Z,17.1
2023-03-07T01:36:33.867Z,12.7
2023-03-07T01:38:35.649Z,13.4
2023-03-07T01:41:40.121Z,15.5
2023-03-07T01:43:42.070Z,16
2023-03-07T01:47:49.129Z,11.5
2023-03-07T01:51:52.960Z,13.3
2023-03-07T02:04:07.749Z,17.6
2023-03-07T02:06:09.656Z,10.7
2023-03-07T02:08:11.540Z,16.4
2023-03-07T02:12:15.389Z,16.1
2023-03-07T02:14:17.296Z,29.3
2023-03-07T02:16:22.432Z,19.8
2023-03-07T02:18:24.388Z,12
2023-03-07T02:20:26.289Z,10.7
2023-03-07T02:22:28.235Z,16.2
2023-03-07T02:24:30.138Z,13.5
2023-03-07T02:26:32.056Z,13
2023-03-07T02:28:33.960Z,20.3
2023-03-07T02:30:39.200Z,15.5
2023-03-07T02:34:42.955Z,13.2
2023-03-07T02:35:45.547Z,24.5
2023-03-07T02:37:47.456Z,22
2023-03-07T02:39:49.387Z,14.1
2023-03-07T02:41:51.280Z,15.9
2023-03-07T02:43:56.420Z,12.9
2023-03-07T02:45:58.398Z,14
2023-03-07T02:50:02.201Z,11.2
2023-03-07T02:54:06.051Z,5.8
2023-03-07T02:58:13.132Z,9.5
2023-03-07T03:02:16.903Z,8.8
2023-03-07T03:04:18.908Z,11
2023-03-07T03:06:20.776Z,9
2023-03-07T03:08:22.660Z,6.9
2023-03-07T03:10:24.625Z,4.7
2023-03-07T03:12:29.720Z,6.5
2023-03-07T03:14:31.646Z,15
2023-03-07T03:16:33.566Z,9.3
2023-03-07T03:18:35.452Z,16.6
2023-03-07T03:20:37.373Z,6.6
2023-03-07T03:22:39.308Z,18.8
2023-03-07T03:24:41.199Z,9.5
2023-03-07T03:26:46.321Z,6.8
2023-03-07T03:33:18.986Z,18.4
2023-03-07T03:35:20.914Z,22.5
2023-03-07T03:37:22.788Z,9.1
2023-03-07T03:39:27.930Z,9.9
2023-03-07T03:41:29.848Z,19.1
2023-03-07T03:43:31.771Z,6.8
2023-03-07T03:47:35.608Z,13.8
2023-03-07T03:49:37.535Z,8.8
2023-03-07T03:51:39.455Z,5.4
2023-03-07T03:53:44.564Z,16.1
2023-03-07T03:55:46.474Z,11.6
2023-03-07T03:57:48.376Z,14.5
2023-03-07T03:59:50.288Z,5.1
2023-03-07T04:01:52.297Z,18.6
2023-03-07T04:03:54.120Z,26
2023-03-07T04:05:56.022Z,15.3
2023-03-07T04:12:04.955Z,8
2023-03-07T04:14:06.896Z,13.6
2023-03-07T04:20:12.595Z,20.8
2023-03-07T04:22:17.740Z,17.8
2023-03-07T04:24:19.662Z,9.5
2023-03-07T04:26:21.608Z,13.4
2023-03-07T04:27:24.186Z,6.2
2023-03-07T04:29:26.143Z,13.4
2023-03-07T04:31:28.079Z,11.2
2023-03-07T04:33:29.953Z,21
2023-03-07T04:35:35.115Z,14.8
2023-03-07T04:41:40.815Z,13.4
2023-03-07T04:43:42.688Z,8.3
2023-03-07T04:45:44.632Z,21.5
2023-03-07T04:49:51.633Z,14.8
2023-03-07T04:51:53.535Z,12.1
2023-03-07T04:53:55.436Z,9.9
2023-03-07T04:55:57.382Z,9.4
2023-03-07T04:57:59.271Z,21.9
2023-03-07T05:00:01.184Z,11.2
2023-03-07T05:02:03.071Z,22.9
2023-03-07T05:04:08.224Z,11.3
2023-03-07T05:06:10.111Z,9.1
2023-03-07T05:08:12.029Z,15
2023-03-07T05:10:13.915Z,11.7
2023-03-07T05:12:15.842Z,7.8
2023-03-07T05:14:17.770Z,19.8
2023-03-07T05:16:19.695Z,16
2023-03-07T05:18:24.827Z,7.6
2023-03-07T05:20:26.737Z,10.7
2023-03-07T05:22:28.645Z,13.5
2023-03-07T05:23:31.215Z,14.4
2023-03-07T05:25:33.115Z,12.6
2023-03-07T05:27:35.009Z,13.2
2023-03-07T05:29:36.943Z,12.1
2023-03-07T05:31:42.045Z,8.2
2023-03-07T05:33:43.979Z,10.7
2023-03-07T05:35:45.921Z,6.8
2023-03-07T05:41:51.577Z,4.5
2023-03-07T05:43:53.511Z,10.4
2023-03-07T05:52:04.350Z,4.7
2023-03-07T05:54:06.261Z,1.8
2023-03-07T05:58:10.087Z,4
2023-03-07T06:02:18.631Z,15.8
2023-03-07T06:04:20.490Z,0.9
2023-03-07T06:06:22.385Z,7.9
2023-03-07T06:08:24.295Z,6
2023-03-07T06:14:33.211Z,6.8
2023-03-07T06:18:36.979Z,3.4
2023-03-07T06:21:41.460Z,7.5
2023-03-07T06:25:45.237Z,7.7
2023-03-07T06:29:52.241Z,4.1
2023-03-07T06:31:54.121Z,2.3
2023-03-07T06:33:57.561Z,2.9
2023-03-07T06:40:01.684Z,3.7
2023-03-07T06:42:06.776Z,9.3
2023-03-07T06:48:12.445Z,5.9
2023-03-07T06:50:15.145Z,5
2023-03-07T06:56:23.186Z,13
2023-03-07T07:06:32.640Z,4.1
2023-03-07T07:08:34.536Z,6.6
2023-03-07T07:12:41.515Z,2.2
2023-03-07T07:14:43.413Z,2.9
2023-03-07T07:17:12.255Z,12.9
2023-03-07T07:19:14.118Z,4.2
2023-03-07T07:21:15.989Z,5.4
2023-03-07T07:23:21.088Z,5
2023-03-07T07:25:23.001Z,5.7
2023-03-07T07:27:24.844Z,13
2023-03-07T07:29:26.729Z,11.7
2023-03-07T07:31:28.687Z,5.1
2023-03-07T07:33:30.530Z,9
2023-03-07T07:35:32.421Z,3.5
2023-03-07T07:37:37.439Z,7
2023-03-07T07:39:39.331Z,6.4
2023-03-07T07:41:41.171Z,2.2
2023-03-07T07:43:43.021Z,2.6
2023-03-07T07:45:44.958Z,3.1
2023-03-07T07:47:46.819Z,2.9
2023-03-07T07:49:48.696Z,11.8
2023-03-07T07:51:53.797Z,17.2
2023-03-07T07:53:55.649Z,10.6
2023-03-07T07:55:57.513Z,4.6
2023-03-07T08:00:01.247Z,7.8
2023-03-07T08:02:03.118Z,9.7
2023-03-07T08:04:05.016Z,6.7
2023-03-07T08:06:10.082Z,7.5
2023-03-07T08:08:11.933Z,5.3
2023-03-07T08:10:14.249Z,13.1
2023-03-07T08:11:16.373Z,4.4
2023-03-07T08:13:18.253Z,12.2
2023-03-07T08:17:22.041Z,9.9
2023-03-07T08:19:27.085Z,6
2023-03-07T08:23:30.839Z,4.7
2023-03-07T08:25:32.700Z,6
2023-03-07T08:27:34.613Z,4.4
2023-03-07T08:29:36.434Z,3.3
2023-03-07T08:31:38.344Z,7.4
2023-03-07T08:33:43.412Z,3.5
2023-03-07T08:35:45.308Z,6.9
2023-03-07T08:45:54.729Z,3.7
2023-03-07T08:47:59.798Z,8.6
2023-03-07T08:50:01.695Z,7.6
2023-03-07T08:52:03.555Z,7.2
2023-03-07T08:54:05.422Z,10
2023-03-07T08:56:07.293Z,11.3
2023-03-07T08:58:09.178Z,7.7
2023-03-07T09:00:12.710Z,5
2023-03-07T09:02:16.167Z,8.5
2023-03-07T09:07:22.460Z,25.4
2023-03-07T09:11:26.277Z,8.5
2023-03-07T09:15:33.267Z,4.4
2023-03-07T09:17:35.129Z,6.1
2023-03-07T09:19:37.041Z,3.6
2023-03-07T09:21:38.913Z,4.2
2023-03-07T09:23:40.801Z,8
2023-03-07T09:25:42.709Z,6.2
2023-03-07T09:27:44.600Z,8
2023-03-07T09:29:49.655Z,16.1
2023-03-07T09:31:51.639Z,6
2023-03-07T09:33:53.461Z,6.9
2023-03-07T09:35:55.351Z,6
2023-03-07T09:39:59.121Z,14.1
2023-03-07T09:42:01.024Z,7.8
2023-03-07T09:44:06.164Z,10.2
2023-03-07T09:46:08.213Z,15.3
2023-03-07T09:48:10.003Z,7.6
2023-03-07T09:50:12.951Z,7.8
2023-03-07T09:52:13.689Z,7.6
2023-03-07T09:54:15.585Z,12.2
2023-03-07T09:56:17.469Z,8.5
2023-03-07T09:58:22.615Z,7.6
2023-03-07T10:00:24.498Z,12.7
2023-03-07T10:02:26.379Z,9.2
2023-03-07T10:07:32.755Z,9.4
2023-03-07T10:09:34.615Z,8.3
2023-03-07T10:13:41.635Z,11.3
2023-03-07T10:19:47.373Z,25.3
2023-03-07T10:21:49.281Z,10.7
2023-03-07T10:23:51.181Z,11.5
2023-03-07T10:25:56.306Z,9.7
2023-03-07T10:27:58.198Z,11.6
2023-03-07T10:30:00.162Z,16.2
2023-03-07T10:32:02.102Z,10.8
2023-03-07T10:34:03.911Z,11.6
2023-03-07T10:36:05.871Z,13.4
2023-03-07T10:38:07.723Z,14.8
2023-03-07T10:40:13.683Z,12.4
2023-03-07T10:42:14.757Z,19.4
2023-03-07T10:44:16.637Z,11.1
2023-03-07T10:46:25.416Z,9.4
2023-03-07T10:50:22.373Z,10.7
2023-03-07T10:52:24.271Z,8.9
2023-03-07T10:54:30.271Z,15.3
2023-03-07T10:58:33.263Z,8.4
2023-03-07T11:01:02.116Z,11.9
2023-03-07T11:03:03.957Z,15.2
2023-03-07T11:05:06.092Z,6.5
2023-03-07T11:07:11.181Z,9.5
2023-03-07T11:09:13.113Z,9.8
2023-03-07T11:11:15.010Z,8.2
2023-03-07T11:13:16.930Z,11.4
2023-03-07T11:17:20.764Z,12.4
2023-03-07T11:25:31.603Z,11.6
2023-03-07T11:27:33.526Z,8.4
2023-03-07T11:29:35.433Z,8.4
2023-03-07T11:31:37.349Z,5.6
2023-03-07T11:35:44.441Z,7.9
2023-03-07T11:37:46.343Z,4
2023-03-07T11:39:48.267Z,5.7
2023-03-07T11:41:50.215Z,3.7
2023-03-07T11:43:52.186Z,3
2023-03-07T11:45:54.053Z,4.8
2023-03-07T11:47:55.978Z,5.5
2023-03-07T11:50:02.697Z,8.5
2023-03-07T11:52:04.535Z,8.5
2023-03-07T11:54:06.470Z,7.1
2023-03-07T11:57:10.943Z,19.9
2023-03-07T11:59:12.837Z,6
2023-03-07T12:01:14.762Z,7
2023-03-07T12:05:21.814Z,6.4
2023-03-07T12:07:23.697Z,6.7
2023-03-07T12:09:25.584Z,3.6
2023-03-07T12:15:31.296Z,4
2023-03-07T12:17:36.414Z,5.5
2023-03-07T12:23:42.150Z,3.4
2023-03-07T12:25:44.022Z,5.5
2023-03-07T12:29:47.841Z,2.5
2023-03-07T12:31:53.167Z,3.1
2023-03-07T12:33:54.858Z,2.3
2023-03-07T12:35:56.856Z,1.2
2023-03-07T12:37:58.654Z,2.1
2023-03-07T12:44:04.330Z,2.6
2023-03-07T12:46:09.483Z,2.1
2023-03-07T12:48:11.382Z,9.1
2023-03-07T12:50:13.727Z,6.7
2023-03-07T12:57:21.548Z,6.7
2023-03-07T12:59:26.631Z,2.1
2023-03-07T13:01:28.689Z,0.5
2023-03-07T13:03:30.467Z,3.3
2023-03-07T13:05:32.355Z,9.1
2023-03-07T13:07:34.255Z,4.5
2023-03-07T13:09:36.183Z,3.4
2023-03-07T13:11:38.141Z,7
2023-03-07T13:17:47.035Z,2.9
2023-03-07T13:19:48.934Z,5.6
2023-03-07T13:21:50.852Z,3
2023-03-07T13:23:52.795Z,8.4
2023-03-07T13:25:54.718Z,1.5
2023-03-07T13:30:01.826Z,5.4
2023-03-07T13:40:11.441Z,6.9
2023-03-07T13:47:23.014Z,11.7
2023-03-07T13:57:35.940Z,4.5
2023-03-07T14:01:39.843Z,2.9
2023-03-07T14:03:41.801Z,2.7
2023-03-07T14:09:50.818Z,3.4
2023-03-07T14:11:52.739Z,8.1
2023-03-07T14:13:54.666Z,1
2023-03-07T14:20:00.463Z,4.4
2023-03-07T14:22:02.386Z,2
2023-03-07T14:26:09.467Z,2.8
2023-03-07T14:28:11.390Z,8
2023-03-07T14:32:15.247Z,10.1
2023-03-07T14:34:17.124Z,9.5
2023-03-07T14:36:19.062Z,1.3
2023-03-07T14:38:24.195Z,6
2023-03-07T14:44:56.865Z,6.3
2023-03-07T14:46:58.770Z,5.6
2023-03-07T14:49:00.663Z,2.5
2023-03-07T14:51:05.790Z,11.6
2023-03-07T14:53:07.708Z,3.3
2023-03-07T14:55:09.611Z,4.2
2023-03-07T14:57:11.504Z,2.3
2023-03-07T14:59:25.926Z,3.3
2023-03-07T15:01:15.274Z,15.8
2023-03-07T15:03:17.180Z,5.6
2023-03-07T15:05:22.300Z,2.3
2023-03-07T15:07:24.185Z,2.9
2023-03-07T15:09:26.083Z,10.8
2023-03-07T15:11:27.974Z,2.7
2023-03-07T15:13:29.855Z,2.5
2023-03-07T15:15:31.741Z,3.3
2023-03-07T15:17:33.642Z,6
2023-03-07T15:19:38.710Z,4.8
2023-03-07T15:21:40.607Z,5.1
2023-03-07T15:23:42.524Z,3.2
2023-03-07T15:31:50.098Z,5.9
2023-03-07T15:33:55.133Z,5.8
2023-03-07T15:35:57.103Z,7
2023-03-07T15:37:58.895Z,1.4
2023-03-07T15:39:01.442Z,2.4
2023-03-07T15:41:03.295Z,3.1
2023-03-07T15:43:05.163Z,2.1
2023-03-07T15:49:14.046Z,0.5
2023-03-07T15:51:15.923Z,5.3
2023-03-07T15:53:17.771Z,4.3
2023-03-07T15:55:19.674Z,3.1
2023-03-07T16:13:39.711Z,6.9
2023-03-07T16:21:50.429Z,5.9
2023-03-07T16:23:52.292Z,5.2
2023-03-07T16:27:55.995Z,5.2
2023-03-07T16:30:01.144Z,4.8
2023-03-07T16:32:03.073Z,4.9
2023-03-07T16:34:04.849Z,9.7
2023-03-07T16:35:07.379Z,4.6
2023-03-07T16:37:09.278Z,7.8
2023-03-07T16:39:11.141Z,7.4
2023-03-07T16:41:13.005Z,10.4
2023-03-07T16:47:21.818Z,7.2
2023-03-07T16:49:23.697Z,11.6
2023-03-07T16:57:34.382Z,10.2
2023-03-07T16:59:36.265Z,10.2
2023-03-07T17:05:41.889Z,4.9
2023-03-07T17:07:43.763Z,6.9
2023-03-07T17:09:45.629Z,14.3
2023-03-07T17:13:52.605Z,6.8
2023-03-07T17:15:54.512Z,7.7
2023-03-07T17:19:58.206Z,12
2023-03-07T17:24:01.944Z,10.1
2023-03-07T17:30:10.779Z,4.2
2023-03-07T17:31:13.346Z,8.3
2023-03-07T17:33:15.212Z,4
2023-03-07T17:37:18.887Z,3.8
2023-03-07T17:39:24.009Z,8.1
2023-03-07T17:41:27.413Z,4.4
2023-03-07T17:45:31.110Z,4.9
2023-03-07T17:47:32.972Z,8.3
2023-03-07T17:49:34.839Z,10.1
2023-03-07T17:53:41.869Z,6.8
2023-03-07T18:03:51.214Z,9.8
2023-03-07T18:05:53.117Z,8.7
2023-03-07T18:12:01.937Z,10.3
2023-03-07T18:16:05.764Z,15.4
2023-03-07T18:22:14.482Z,11.9
2023-03-07T18:24:16.352Z,11.1
2023-03-07T18:28:47.082Z,14.8
2023-03-07T18:34:55.875Z,8.6
2023-03-07T18:36:57.746Z,9.1
2023-03-07T18:38:59.595Z,10.9
2023-03-07T18:41:01.458Z,14.4
2023-03-07T18:45:05.217Z,13.5
2023-03-07T18:47:07.117Z,11.4
2023-03-07T18:49:12.154Z,17.7
2023-03-07T18:51:14.029Z,9.7
2023-03-07T18:53:15.893Z,11.1
2023-03-07T18:55:17.761Z,10.3
2023-03-07T18:57:19.595Z,13.5
2023-03-07T18:59:21.483Z,10.5
2023-03-07T19:01:23.352Z,7.7
2023-03-07T19:03:28.429Z,18
2023-03-07T19:07:32.160Z,14.7
2023-03-07T19:09:34.023Z,10.1
2023-03-07T19:11:35.848Z,23.4
2023-03-07T19:13:37.688Z,10
2023-03-07T19:15:39.538Z,10.9
2023-03-07T19:17:44.596Z,17.9
2023-03-07T19:19:46.424Z,10.6
2023-03-07T19:21:48.279Z,8.7
2023-03-07T19:22:50.797Z,6.9
2023-03-07T19:24:52.658Z,9
2023-03-07T19:26:54.526Z,15.4
2023-03-07T19:28:56.341Z,13.2
2023-03-07T19:31:01.429Z,7.3
2023-03-07T19:33:03.251Z,10.6
2023-03-07T19:35:05.095Z,9.3
2023-03-07T19:37:06.945Z,10
2023-03-07T19:39:08.755Z,6.1
2023-03-07T19:41:10.605Z,12.3
2023-03-07T19:43:12.456Z,12
2023-03-07T19:45:17.596Z,10.6
2023-03-07T19:49:21.170Z,7.7
2023-03-07T19:51:23.027Z,6.5
2023-03-07T19:53:24.860Z,13
2023-03-07T19:57:28.509Z,15.3
2023-03-07T19:59:33.596Z,9.7
2023-03-07T20:01:35.493Z,7.1
2023-03-07T20:03:37.312Z,11.4
2023-03-07T20:05:39.125Z,6.7
2023-03-07T20:07:40.938Z,10
2023-03-07T20:09:42.786Z,11.1
2023-03-07T20:11:44.597Z,12.7
2023-03-07T20:15:51.529Z,11.2
2023-03-07T20:17:53.305Z,13.8
2023-03-07T20:25:01.326Z,20.2
2023-03-07T20:27:06.380Z,16.2
2023-03-07T20:29:08.177Z,15.3
2023-03-07T20:31:10.024Z,15.2
2023-03-07T20:33:11.825Z,21.7
2023-03-07T20:35:13.655Z,12.7
2023-03-07T20:37:15.465Z,16.3
2023-03-07T20:39:17.289Z,21.4
2023-03-07T20:41:22.350Z,14.5
2023-03-07T20:43:24.136Z,12.3
2023-03-07T20:51:31.422Z,27.4
2023-03-07T20:53:33.237Z,16.1
2023-03-07T20:59:41.938Z,22.4
2023-03-07T21:01:43.832Z,29.6
2023-03-07T21:07:49.241Z,27
2023-03-07T21:09:54.295Z,24.4
2023-03-07T21:11:56.138Z,32
2023-03-07T21:13:57.955Z,20.7
2023-03-07T21:17:02.396Z,24.1
2023-03-07T21:19:04.145Z,25.8
2023-03-07T21:27:14.643Z,29.7
2023-03-07T21:29:16.474Z,23.5
2023-03-07T21:31:18.336Z,33.8
2023-03-07T21:33:20.113Z,26.7
2023-03-07T21:35:21.950Z,26
2023-03-07T21:37:26.992Z,23.6
2023-03-07T21:39:28.793Z,23.5
2023-03-07T21:43:32.439Z,17.4
2023-03-07T21:45:34.312Z,23.4
2023-03-07T21:47:36.070Z,23.4
2023-03-07T21:49:37.864Z,34.9
2023-03-07T21:51:42.902Z,35.4
2023-03-07T21:53:44.734Z,22.2
2023-03-07T21:55:47.606Z,26.1
2023-03-07T21:57:49.401Z,25
2023-03-07T21:59:51.217Z,37
2023-03-07T22:01:53.115Z,21.3
2023-03-07T22:03:55.015Z,20.2
2023-03-07T22:05:59.917Z,21.7
2023-03-07T22:08:01.723Z,34.4
2023-03-07T22:10:03.590Z,22
2023-03-07T22:12:32.415Z,22.4
2023-03-07T22:14:34.242Z,21.5
2023-03-07T22:16:36.168Z,25.6
2023-03-07T22:18:41.082Z,22.1
2023-03-07T22:20:42.903Z,29.1
2023-03-07T22:22:44.702Z,16.8
2023-03-07T22:24:46.526Z,19.7
2023-03-07T22:26:48.317Z,22.3
2023-03-07T22:30:51.953Z,21.9
2023-03-07T22:32:56.932Z,16.8
2023-03-07T22:34:58.740Z,17.9
2023-03-07T22:37:00.552Z,24.3
2023-03-07T22:39:02.358Z,22.3
2023-03-07T22:41:04.199Z,17.6
2023-03-07T22:43:05.972Z,16.7
2023-03-07T22:45:07.768Z,17.9
2023-03-07T22:47:12.812Z,29.1
2023-03-07T22:49:14.601Z,32.8
2023-03-07T22:51:16.409Z,18.9
2023-03-07T22:55:20.008Z,22.9
2023-03-07T22:57:21.834Z,25.7
2023-03-07T22:59:23.637Z,19.8
2023-03-07T23:01:28.673Z,20.7
2023-03-07T23:03:30.520Z,16.6
2023-03-07T23:05:32.261Z,18.1
2023-03-07T23:06:34.769Z,16.3
2023-03-07T23:26:56.455Z,18
2023-03-07T23:29:01.479Z,21.6
2023-03-07T23:37:10.197Z,19.8
2023-03-07T23:45:22.141Z,10.3
2023-03-07T23:47:22.435Z,11.2
2023-03-07T23:49:24.236Z,13.5
2023-03-07T23:51:26.024Z,23.2
2023-03-07T23:57:34.659Z,14.6
2023-03-07T23:59:36.452Z,13.5
